Time;durP1;ratioP1;P1;durP2;ratioP2;P2;SDS_P1;SDS_P2;PMS_P1;PMS_P2;Temp;Humidity;BMP_temperature;BMP_pressure;BME280_temperature;BME280_humidity;BME280_pressure;Samples;Min_cycle;Max_cycle;Signal;HPM_P1;HPM_P2
2023/03/05 00:01:05;;;;;;;;;;;;;;;4.32;94.87;102142.78;10415035;28;19925;-64
2023/03/05 00:06:08;;;;;;;;;;;;;;;4.62;94.82;102139.03;10413099;28;20292;-64
2023/03/05 00:11:11;;;;;;;;;;;;;;;4.46;97.69;102135.72;10413151;28;19976;-64
2023/03/05 00:16:14;;;;;;;;;;;;;;;4.48;96.84;102133.13;10397320;28;19928;-65
2023/03/05 00:21:20;;;;;;;;;;;;;;;4.44;97.62;102129.69;10418139;28;20377;-64
2023/03/05 00:26:23;;;;;;;;;;;;;;;4.40;98.25;102119.38;10420221;28;19925;-64
2023/03/05 00:31:29;;;;;;;;;;;;;;;4.23;99.89;102124.72;10403589;28;20380;-65
2023/03/05 00:36:31;;;;;;;;;;;;;;;4.19;100.00;102116.13;10419994;28;20294;-64
2023/03/05 00:41:33;;;;;;;;;;;;;;;4.57;100.00;102114.00;10403902;28;19925;-65
2023/03/05 00:46:36;;;;;;;;;;;;;;;4.17;100.00;102104.03;10418742;28;19925;-65
2023/03/05 00:51:38;;;;;;;;;;;;;;;4.41;99.61;102096.00;10420330;28;20284;-64
2023/03/05 00:56:40;;;;;;;;;;;;;;;4.13;100.00;102092.84;10420835;28;19925;-64
2023/03/05 01:01:42;;;;;;;;;;;;;;;3.84;100.00;102085.34;10419736;28;19925;-64
2023/03/05 01:06:45;;;;;;;;;;;;;;;4.17;100.00;102083.28;10418652;28;19933;-64
2023/03/05 01:11:47;;;;;;;;;;;;;;;4.12;100.00;102080.78;10420170;28;19929;-64
2023/03/05 01:16:49;;;;;;;;;;;;;;;4.25;100.00;102084.06;10419354;28;19925;-64
2023/03/05 01:21:52;;;;;;;;;;;;;;;4.25;100.00;102078.91;10419152;28;20336;-64
2023/03/05 01:26:55;;;;;;;;;;;;;;;4.20;98.44;102066.00;10417997;28;20399;-64
2023/03/05 01:31:57;;;;;;;;;;;;;;;4.31;99.52;102060.69;10417450;28;20387;-64
2023/03/05 01:36:59;;;;;;;;;;;;;;;4.35;99.74;102051.13;10418157;28;19925;-64
2023/03/05 01:42:02;;;;;;;;;;;;;;;4.11;99.76;102047.94;10416514;28;19948;-64
2023/03/05 01:47:04;;;;;;;;;;;;;;;4.05;100.00;102040.22;10416022;28;19925;-64
2023/03/05 01:52:08;;;;;;;;;;;;;;;4.02;100.00;102029.91;10400843;28;19926;-64
2023/03/05 01:57:19;;;;;;;;;;;;;;;4.12;100.00;102030.63;10417631;28;19929;-64
2023/03/05 02:02:21;;;;;;;;;;;;;;;4.04;100.00;102022.97;10382370;23;19929;-62
2023/03/05 02:07:23;;;;;;;;;;;;;;;4.21;100.00;102017.59;10373387;28;19981;-62
2023/03/05 02:12:26;;;;;;;;;;;;;;;3.78;100.00;102018.03;10359618;28;19929;-61
2023/03/05 02:17:28;;;;;;;;;;;;;;;4.00;100.00;101998.81;10376737;28;19929;-62
2023/03/05 02:22:30;;;;;;;;;;;;;;;4.12;100.00;101989.16;10375719;28;19929;-62
2023/03/05 02:27:33;;;;;;;;;;;;;;;4.30;100.00;101993.28;10373777;28;19933;-62
2023/03/05 02:32:36;;;;;;;;;;;;;;;4.20;100.00;101974.38;10358361;28;19952;-62
2023/03/05 02:37:38;;;;;;;;;;;;;;;4.00;100.00;101967.72;10374278;28;19933;-62
2023/03/05 02:42:40;;;;;;;;;;;;;;;4.21;100.00;101957.97;10356596;28;19955;-62
2023/03/05 02:47:43;;;;;;;;;;;;;;;3.61;100.00;101956.88;10356666;28;19929;-62
2023/03/05 02:52:45;;;;;;;;;;;;;;;3.65;100.00;101953.41;10357568;28;20372;-62
2023/03/05 02:57:47;;;;;;;;;;;;;;;4.09;100.00;101943.44;10369368;28;19929;-62
2023/03/05 03:02:49;;;;;;;;;;;;;;;3.88;100.00;101937.63;10415560;28;19932;-62
2023/03/05 03:07:52;;;;;;;;;;;;;;;4.08;100.00;101933.91;10414326;28;20015;-63
2023/03/05 03:12:54;;;;;;;;;;;;;;;4.02;100.00;101927.09;10415381;28;19987;-63
2023/03/05 03:17:56;;;;;;;;;;;;;;;3.76;100.00;101929.97;10414416;28;19925;-62
2023/03/05 03:22:58;;;;;;;;;;;;;;;3.87;100.00;101912.56;10415976;28;19964;-62
2023/03/05 03:28:00;;;;;;;;;;;;;;;3.81;100.00;101909.19;10413475;28;19928;-62
2023/03/05 03:33:03;;;;;;;;;;;;;;;3.91;100.00;101901.28;10414983;28;20357;-62
2023/03/05 03:38:05;;;;;;;;;;;;;;;3.79;100.00;101898.00;10396750;28;19929;-62
2023/03/05 03:43:07;;;;;;;;;;;;;;;3.78;100.00;101894.53;10396120;28;19976;-62
2023/03/05 03:48:09;;;;;;;;;;;;;;;3.83;100.00;101878.94;10413919;28;19925;-62
2023/03/05 03:53:13;;;;;;;;;;;;;;;3.72;100.00;101885.13;10414902;28;19929;-62
2023/03/05 03:58:15;;;;;;;;;;;;;;;3.62;100.00;101877.47;10420403;28;20299;-62
2023/03/05 04:03:17;;;;;;;;;;;;;;;3.79;100.00;101865.19;10423201;28;19925;-62
2023/03/05 04:08:19;;;;;;;;;;;;;;;3.77;100.00;101864.34;10420983;28;19925;-62
2023/03/05 04:13:21;;;;;;;;;;;;;;;3.46;100.00;101863.81;10422823;28;19933;-62
2023/03/05 04:18:24;;;;;;;;;;;;;;;3.74;100.00;101851.41;10420818;28;20277;-62
2023/03/05 04:23:26;;;;;;;;;;;;;;;3.45;100.00;101851.75;10422237;28;19979;-62
2023/03/05 04:28:28;;;;;;;;;;;;;;;3.34;100.00;101854.44;10420418;28;19929;-62
2023/03/05 04:33:30;;;;;;;;;;;;;;;3.57;100.00;101851.63;10403760;28;19929;-62
2023/03/05 04:38:32;;;;;;;;;;;;;;;3.54;100.00;101851.66;10420356;28;19925;-62
2023/03/05 04:43:35;;;;;;;;;;;;;;;3.52;100.00;101843.91;10420821;28;19925;-62
2023/03/05 04:48:37;;;;;;;;;;;;;;;3.65;100.00;101834.25;10418795;28;19925;-62
2023/03/05 04:53:39;;;;;;;;;;;;;;;3.57;100.00;101830.06;10421038;28;19925;-62
2023/03/05 04:58:41;;;;;;;;;;;;;;;3.68;100.00;101829.06;10419802;28;19924;-62
2023/03/05 05:03:43;;;;;;;;;;;;;;;4.05;100.00;101819.91;10401756;28;20387;-62
2023/03/05 05:08:45;;;;;;;;;;;;;;;3.63;100.00;101806.66;10417319;28;19932;-63
2023/03/05 05:13:48;;;;;;;;;;;;;;;3.80;100.00;101804.72;10402062;28;20109;-62
2023/03/05 05:18:50;;;;;;;;;;;;;;;3.74;100.00;101803.94;10419441;28;19925;-62
2023/03/05 05:23:52;;;;;;;;;;;;;;;3.41;100.00;101804.31;10419287;28;20048;-62
2023/03/05 05:28:54;;;;;;;;;;;;;;;3.43;100.00;101797.41;10417503;28;19987;-63
2023/03/05 05:33:57;;;;;;;;;;;;;;;3.60;100.00;101798.91;10419455;28;19925;-62
2023/03/05 05:38:59;;;;;;;;;;;;;;;3.65;100.00;101794.56;10419304;28;19929;-63
2023/03/05 05:44:01;;;;;;;;;;;;;;;3.56;100.00;101797.25;10417878;28;19925;-63
2023/03/05 05:49:03;;;;;;;;;;;;;;;3.92;100.00;101790.75;10417227;28;19925;-62
2023/03/05 05:54:05;;;;;;;;;;;;;;;3.61;100.00;101783.38;10418032;28;19929;-62
2023/03/05 05:59:08;;;;;;;;;;;;;;;3.66;100.00;101796.25;10400008;28;19925;-63
2023/03/05 06:04:10;;;;;;;;;;;;;;;3.71;100.00;101792.72;10398290;28;20438;-62
2023/03/05 06:09:12;;;;;;;;;;;;;;;3.61;100.00;101790.28;10417121;28;19979;-62
2023/03/05 06:14:14;;;;;;;;;;;;;;;3.57;100.00;101789.47;10417902;28;19925;-63
2023/03/05 06:19:16;;;;;;;;;;;;;;;3.28;100.00;101782.91;10399725;28;19971;-62
2023/03/05 06:24:19;;;;;;;;;;;;;;;3.37;100.00;101791.44;10416975;28;19929;-62
2023/03/05 06:29:21;;;;;;;;;;;;;;;3.26;100.00;101784.66;10398075;28;19932;-62
2023/03/05 06:34:23;;;;;;;;;;;;;;;3.48;100.00;101786.97;10416549;28;19925;-62
2023/03/05 06:39:25;;;;;;;;;;;;;;;3.54;100.00;101776.56;10416418;28;19960;-62
2023/03/05 06:44:27;;;;;;;;;;;;;;;3.56;100.00;101769.63;10415664;28;19971;-62
2023/03/05 06:49:29;;;;;;;;;;;;;;;3.43;100.00;101773.22;10415015;28;19972;-63
2023/03/05 06:54:32;;;;;;;;;;;;;;;3.46;100.00;101779.25;10415914;28;20295;-62
2023/03/05 06:59:34;;;;;;;;;;;;;;;3.39;100.00;101768.97;10414941;28;19925;-63
2023/03/05 07:04:36;;;;;;;;;;;;;;;3.50;100.00;101778.31;10415970;28;19989;-63
2023/03/05 07:09:41;;;;;;;;;;;;;;;3.51;100.00;101777.47;10413954;28;19936;-62
2023/03/05 07:14:44;;;;;;;;;;;;;;;3.59;100.00;101766.16;10414001;28;19925;-62
2023/03/05 07:19:46;;;;;;;;;;;;;;;3.72;100.00;101760.78;10415286;28;19925;-62
2023/03/05 07:24:48;;;;;;;;;;;;;;;3.42;100.00;101761.19;10414507;28;19940;-62
2023/03/05 07:29:50;;;;;;;;;;;;;;;3.76;100.00;101758.16;10417121;28;19925;-62
2023/03/05 07:34:52;;;;;;;;;;;;;;;3.67;100.00;101764.31;10424163;28;19925;-62
2023/03/05 07:39:54;;;;;;;;;;;;;;;3.83;100.00;101757.19;10420592;28;19929;-62
2023/03/05 07:44:57;;;;;;;;;;;;;;;4.22;100.00;101768.72;10420114;28;20391;-62
2023/03/05 07:50:00;;;;;;;;;;;;;;;4.15;100.00;101753.25;10421902;28;20414;-62
2023/03/05 07:55:02;;;;;;;;;;;;;;;3.99;100.00;101752.66;10422570;28;19971;-62
2023/03/05 08:00:05;;;;;;;;;;;;;;;4.19;100.00;101753.19;10419648;28;19941;-62
2023/03/05 08:05:08;;;;;;;;;;;;;;;4.47;100.00;101760.53;10420627;28;20364;-63
2023/03/05 08:10:10;;;;;;;;;;;;;;;4.50;100.00;101752.69;10425883;28;20342;-63
2023/03/05 08:15:12;;;;;;;;;;;;;;;4.17;100.00;101746.31;10420638;28;20369;-63
2023/03/05 08:20:14;;;;;;;;;;;;;;;4.39;100.00;101734.75;10401830;28;20285;-62
2023/03/05 08:25:16;;;;;;;;;;;;;;;4.42;100.00;101733.81;10417518;28;19980;-63
2023/03/05 08:30:20;;;;;;;;;;;;;;;4.74;100.00;101725.50;10402921;28;20307;-63
2023/03/05 08:35:23;;;;;;;;;;;;;;;4.88;100.00;101716.59;10403339;28;19925;-63
2023/03/05 08:40:25;;;;;;;;;;;;;;;5.46;100.00;101715.41;10400543;28;19947;-62
2023/03/05 08:45:27;;;;;;;;;;;;;;;5.68;99.55;101710.63;10420295;28;19925;-63
2023/03/05 08:50:29;;;;;;;;;;;;;;;5.28;96.51;101718.38;10419508;28;19937;-63
2023/03/05 08:55:32;;;;;;;;;;;;;;;5.22;96.61;101712.44;10417330;28;19956;-63
2023/03/05 09:00:34;;;;;;;;;;;;;;;5.69;95.85;101704.50;10416792;28;19925;-64
2023/03/05 09:05:36;;;;;;;;;;;;;;;5.99;92.02;101696.09;10419935;28;20336;-64
2023/03/05 09:10:41;;;;;;;;;;;;;;;6.59;88.85;101691.97;10418679;28;19931;-64
2023/03/05 09:15:43;;;;;;;;;;;;;;;6.25;90.39;101698.03;10420163;28;19987;-64
2023/03/05 09:20:45;;;;;;;;;;;;;;;6.01;89.91;101691.72;10402430;28;19924;-64
2023/03/05 09:25:48;;;;;;;;;;;;;;;5.62;91.54;101691.72;10416539;28;19979;-63
2023/03/05 09:30:50;;;;;;;;;;;;;;;5.19;98.50;101693.47;10417999;28;19979;-63
2023/03/05 09:35:52;;;;;;;;;;;;;;;5.14;100.00;101693.56;10418821;28;19995;-63
2023/03/05 09:40:55;;;;;;;;;;;;;;;4.84;100.00;101688.13;10419251;28;19925;-63
2023/03/05 09:46:15;;;;;;;;;;;;;;;4.79;100.00;101683.88;10418012;28;19932;-63
2023/03/05 09:51:24;;;;;;;;;;;;;;;5.00;100.00;101695.59;10397919;28;19991;-63
2023/03/05 09:56:31;;;;;;;;;;;;;;;4.91;100.00;101682.78;10399080;28;20414;-63
2023/03/05 10:01:35;;;;;;;;;;;;;;;5.02;100.00;101673.91;10399319;28;19933;-63
2023/03/05 10:07:16;;;;;;;;;;;;;;;5.19;100.00;101665.78;10400452;28;19925;-64
2023/03/05 10:12:31;;;;;;;;;;;;;;;5.35;100.00;101670.66;10212837;29;20351;-63
2023/03/05 10:17:33;;;;;;;;;;;;;;;5.85;100.00;101665.19;10348556;28;19925;-62
2023/03/05 10:22:47;;;;;;;;;;;;;;;6.00;100.00;101659.66;10388661;28;20442;-62
2023/03/05 10:27:51;;;;;;;;;;;;;;;6.04;100.00;101640.50;10396817;28;19933;-62
2023/03/05 10:33:01;;;;;;;;;;;;;;;6.59;97.03;101629.53;10398041;28;20411;-63
2023/03/05 10:38:30;;;;;;;;;;;;;;;6.36;100.00;101624.97;10416412;28;19925;-62
2023/03/05 10:43:38;;;;;;;;;;;;;;;7.98;93.22;101621.84;10410652;28;19925;-62
2023/03/05 10:48:53;;;;;;;;;;;;;;;7.15;85.67;101621.00;10394678;28;19933;-63
2023/03/05 10:53:57;;;;;;;;;;;;;;;7.72;87.02;101609.66;10398079;28;19932;-62
2023/03/05 10:58:59;;;;;;;;;;;;;;;8.08;86.33;101609.34;10398714;28;19929;-62
2023/03/05 11:04:05;;;;;;;;;;;;;;;8.11;84.08;101595.34;10414498;28;19979;-62
2023/03/05 11:09:17;;;;;;;;;;;;;;;7.15;83.90;101595.81;10416190;28;19925;-62
2023/03/05 11:14:29;;;;;;;;;;;;;;;7.35;83.41;101591.75;10415403;28;19932;-62
2023/03/05 11:19:32;;;;;;;;;;;;;;;7.57;81.77;101581.50;10416064;28;19925;-62
2023/03/05 11:24:34;;;;;;;;;;;;;;;7.55;79.50;101578.94;10410943;28;19928;-62
2023/03/05 11:29:38;;;;;;;;;;;;;;;7.71;79.53;101571.44;10374055;28;19932;-62
2023/03/05 11:34:40;;;;;;;;;;;;;;;6.85;82.67;101566.34;10356285;28;19962;-63
2023/03/05 11:39:42;;;;;;;;;;;;;;;6.82;78.27;101566.41;10373406;28;20300;-63
2023/03/05 11:44:44;;;;;;;;;;;;;;;7.72;79.47;101551.47;10373556;28;19925;-63
2023/03/05 11:49:47;;;;;;;;;;;;;;;7.58;77.41;101544.09;10373800;28;19925;-63
2023/03/05 11:54:56;;;;;;;;;;;;;;;7.81;78.29;101538.94;10354902;28;20377;-63
2023/03/05 11:59:58;;;;;;;;;;;;;;;7.35;77.42;101537.03;10355112;28;19930;-63
2023/03/05 12:05:02;;;;;;;;;;;;;;;7.48;81.18;101520.13;10355641;28;20288;-62
2023/03/05 12:10:04;;;;;;;;;;;;;;;7.93;77.57;101505.56;10356415;28;19925;-63
2023/03/05 12:15:25;;;;;;;;;;;;;;;8.27;74.82;101493.91;10375138;28;20254;-62
2023/03/05 12:20:36;;;;;;;;;;;;;;;9.86;73.79;101485.88;10403851;28;19925;-63
2023/03/05 12:25:49;;;;;;;;;;;;;;;9.63;71.93;101479.88;10372271;28;20016;-63
2023/03/05 12:30:52;;;;;;;;;;;;;;;9.43;69.23;101472.00;10362477;28;19926;-63
2023/03/05 12:36:15;;;;;;;;;;;;;;;9.94;70.51;101460.22;10380078;28;19941;-63
2023/03/05 12:41:17;;;;;;;;;;;;;;;8.71;68.02;101460.97;10379415;28;19933;-62
2023/03/05 12:46:23;;;;;;;;;;;;;;;9.17;65.16;101454.81;10379687;28;19955;-63
2023/03/05 12:51:36;;;;;;;;;;;;;;;10.11;65.32;101438.56;10379556;28;19933;-64
2023/03/05 12:56:38;;;;;;;;;;;;;;;9.71;64.28;101426.41;10375231;28;19975;-63
2023/03/05 13:01:42;;;;;;;;;;;;;;;8.95;65.18;101423.50;10401598;28;19933;-63
2023/03/05 13:06:44;;;;;;;;;;;;;;;9.66;65.69;101403.06;10399671;28;19925;-63
2023/03/05 13:11:47;;;;;;;;;;;;;;;9.54;63.32;101393.16;10419559;28;19925;-63
2023/03/05 13:16:50;;;;;;;;;;;;;;;10.85;63.63;101377.50;10401299;28;20414;-63
2023/03/05 13:21:59;;;;;;;;;;;;;;;10.11;62.89;101377.53;10418134;28;19951;-63
2023/03/05 13:27:01;;;;;;;;;;;;;;;10.30;62.76;101367.88;10418040;28;20265;-63
2023/03/05 13:32:17;;;;;;;;;;;;;;;10.17;64.01;101372.88;10401549;28;20327;-63
2023/03/05 13:37:20;;;;;;;;;;;;;;;9.95;63.40;101367.78;10401394;28;20396;-63
2023/03/05 13:42:33;;;;;;;;;;;;;;;9.72;64.86;101360.13;10401210;28;20381;-63
2023/03/05 13:47:35;;;;;;;;;;;;;;;8.88;65.10;101357.59;10417274;28;20016;-63
2023/03/05 13:52:38;;;;;;;;;;;;;;;8.36;66.28;101357.91;10400194;28;20380;-63
2023/03/05 13:57:44;;;;;;;;;;;;;;;8.93;64.09;101334.75;10418632;28;19929;-64
2023/03/05 14:02:47;;;;;;;;;;;;;;;9.13;63.12;101330.44;10417806;28;19925;-64
2023/03/05 14:07:50;;;;;;;;;;;;;;;9.21;61.92;101333.56;10400678;28;19952;-63
2023/03/05 14:12:52;;;;;;;;;;;;;;;9.21;63.20;101321.38;10404712;23;19929;-66
2023/03/05 14:18:18;;;;;;;;;;;;;;;9.63;64.37;101309.06;10375262;28;19925;-67
2023/03/05 14:23:43;;;;;;;;;;;;;;;9.19;64.43;101311.91;10366403;28;19925;-67
2023/03/05 14:28:52;;;;;;;;;;;;;;;8.31;64.85;101295.47;10368263;28;19929;-67
2023/03/05 14:34:00;;;;;;;;;;;;;;;8.47;64.45;101293.13;10359042;28;19926;-66
2023/03/05 14:39:02;;;;;;;;;;;;;;;8.88;65.69;101282.72;10391102;28;19933;-66
2023/03/05 14:44:09;;;;;;;;;;;;;;;8.49;64.86;101277.38;10374255;28;20372;-67
2023/03/05 14:49:11;;;;;;;;;;;;;;;8.64;65.61;101266.34;10375338;28;19929;-67
2023/03/05 14:54:17;;;;;;;;;;;;;;;7.78;64.16;101262.75;10375204;28;19930;-66
2023/03/05 14:59:22;;;;;;;;;;;;;;;7.98;65.29;101253.31;10375601;28;19972;-66
2023/03/05 15:04:24;;;;;;;;;;;;;;;9.64;61.48;101248.03;10374942;28;19926;-67
2023/03/05 15:09:26;;;;;;;;;;;;;;;9.93;61.79;101227.50;10375313;28;19976;-67
2023/03/05 15:14:29;;;;;;;;;;;;;;;8.44;64.19;101229.75;10415747;28;19932;-66
2023/03/05 15:19:31;;;;;;;;;;;;;;;7.59;65.41;101228.72;10416022;28;19983;-67
2023/03/05 15:24:33;;;;;;;;;;;;;;;7.96;65.92;101227.28;10416036;28;19926;-67
2023/03/05 15:29:36;;;;;;;;;;;;;;;8.04;65.85;101219.16;10415225;28;20277;-67
2023/03/05 15:34:38;;;;;;;;;;;;;;;7.60;67.70;101220.00;10415800;28;19971;-66
2023/03/05 15:39:40;;;;;;;;;;;;;;;7.04;67.57;101221.19;10415665;28;19925;-66
2023/03/05 15:44:42;;;;;;;;;;;;;;;7.17;69.00;101200.75;10415649;28;19976;-67
2023/03/05 15:49:44;;;;;;;;;;;;;;;7.39;68.77;101193.00;10416616;28;19932;-67
2023/03/05 15:54:47;;;;;;;;;;;;;;;6.85;69.09;101194.13;10422828;28;19991;-67
2023/03/05 15:59:49;;;;;;;;;;;;;;;6.84;70.28;101190.66;10422143;28;19925;-67
2023/03/05 16:04:51;;;;;;;;;;;;;;;6.64;70.51;101183.56;10422450;28;19929;-67
2023/03/05 16:09:53;;;;;;;;;;;;;;;6.45;71.32;101172.06;10423019;28;19925;-66
2023/03/05 16:14:55;;;;;;;;;;;;;;;6.72;70.27;101169.44;10420853;28;19925;-66
2023/03/05 16:19:57;;;;;;;;;;;;;;;6.04;72.71;101161.31;10419001;28;19929;-66
2023/03/05 16:25:00;;;;;;;;;;;;;;;6.41;72.25;101153.13;10422033;28;19932;-66
2023/03/05 16:30:03;;;;;;;;;;;;;;;6.41;71.48;101150.53;10421493;28;20298;-66
2023/03/05 16:35:05;;;;;;;;;;;;;;;6.33;72.31;101147.34;10420218;28;19925;-66
2023/03/05 16:40:08;;;;;;;;;;;;;;;6.24;72.06;101137.25;10420033;28;19926;-66
2023/03/05 16:45:10;;;;;;;;;;;;;;;6.53;71.18;101135.41;10421668;28;19925;-66
2023/03/05 16:50:12;;;;;;;;;;;;;;;6.55;72.34;101125.78;10403778;28;19933;-67
2023/03/05 16:55:15;;;;;;;;;;;;;;;6.44;73.28;101129.63;10421236;28;19925;-66
2023/03/05 17:00:17;;;;;;;;;;;;;;;6.09;73.47;101125.63;10420661;28;19932;-66
2023/03/05 17:05:19;;;;;;;;;;;;;;;6.25;73.66;101125.94;10420851;28;19929;-66
2023/03/05 17:10:22;;;;;;;;;;;;;;;5.76;76.16;101121.44;10419926;28;19929;-66
2023/03/05 17:15:24;;;;;;;;;;;;;;;5.42;80.43;101113.84;10419663;28;19971;-66
2023/03/05 17:20:26;;;;;;;;;;;;;;;5.39;81.45;101116.56;10420324;28;19925;-66
2023/03/05 17:25:30;;;;;;;;;;;;;;;5.29;83.42;101117.72;10418172;28;20217;-66
2023/03/05 17:30:35;;;;;;;;;;;;;;;5.33;85.12;101119.31;10402343;28;19925;-66
2023/03/05 17:35:38;;;;;;;;;;;;;;;5.19;88.64;101119.75;10419596;28;19971;-66
2023/03/05 17:40:40;;;;;;;;;;;;;;;5.56;89.70;101114.28;10401335;28;20364;-66
2023/03/05 17:45:42;;;;;;;;;;;;;;;5.36;89.53;101116.63;10419228;28;19932;-66
2023/03/05 17:50:45;;;;;;;;;;;;;;;5.13;89.63;101114.75;10417742;28;19960;-66
2023/03/05 17:55:47;;;;;;;;;;;;;;;5.40;90.94;101110.47;10418190;28;20257;-66
2023/03/05 18:00:49;;;;;;;;;;;;;;;5.35;92.12;101113.19;10418719;28;19929;-66
2023/03/05 18:05:52;;;;;;;;;;;;;;;5.44;87.72;101101.66;10416614;28;20339;-66
2023/03/05 18:10:54;;;;;;;;;;;;;;;5.43;89.59;101102.59;10417538;28;19925;-66
2023/03/05 18:15:57;;;;;;;;;;;;;;;5.28;90.21;101103.03;10416662;28;19925;-66
2023/03/05 18:20:59;;;;;;;;;;;;;;;5.29;88.56;101102.16;10417286;28;19929;-66
2023/03/05 18:26:01;;;;;;;;;;;;;;;5.32;87.33;101089.06;10417648;28;19929;-66
2023/03/05 18:31:04;;;;;;;;;;;;;;;5.16;86.37;101089.56;10417416;28;19932;-66
2023/03/05 18:36:08;;;;;;;;;;;;;;;5.17;86.21;101085.19;10417273;28;19936;-66
2023/03/05 18:41:18;;;;;;;;;;;;;;;5.24;86.23;101080.66;10416485;28;20280;-66
2023/03/05 18:46:20;;;;;;;;;;;;;;;5.18;85.36;101074.78;10415917;28;19979;-66
2023/03/05 18:51:22;;;;;;;;;;;;;;;4.95;86.03;101069.44;10416107;28;19925;-66
2023/03/05 18:56:25;;;;;;;;;;;;;;;4.79;86.20;101067.28;10399124;28;19979;-66
2023/03/05 19:01:27;;;;;;;;;;;;;;;4.91;85.56;101063.47;10409905;28;19979;-66
2023/03/05 19:06:29;;;;;;;;;;;;;;;4.89;85.91;101072.19;10414981;28;19925;-66
2023/03/05 19:11:31;;;;;;;;;;;;;;;4.89;87.11;101061.81;10415676;28;20054;-66
2023/03/05 19:16:39;;;;;;;;;;;;;;;5.00;87.15;101051.97;10414459;28;19925;-66
2023/03/05 19:21:41;;;;;;;;;;;;;;;5.08;88.12;101041.34;10413099;28;19952;-66
2023/03/05 19:26:44;;;;;;;;;;;;;;;4.88;87.81;101032.44;10419881;28;19983;-66
2023/03/05 19:31:46;;;;;;;;;;;;;;;4.82;87.94;101028.28;10422736;28;19925;-66
2023/03/05 19:36:48;;;;;;;;;;;;;;;4.84;85.93;101023.91;10423607;28;19945;-66
2023/03/05 19:41:51;;;;;;;;;;;;;;;4.56;88.83;101023.00;10422323;28;20076;-66
2023/03/05 19:46:53;;;;;;;;;;;;;;;4.79;87.73;101014.53;10423749;28;19925;-66
2023/03/05 19:51:55;;;;;;;;;;;;;;;4.75;88.01;101007.75;10423001;28;19987;-66
2023/03/05 19:56:58;;;;;;;;;;;;;;;4.64;88.98;101016.69;10421120;28;19929;-66
2023/03/05 20:02:01;;;;;;;;;;;;;;;4.52;90.80;101011.00;10420742;28;19932;-66
2023/03/05 20:07:04;;;;;;;;;;;;;;;4.56;90.61;101005.69;10420745;28;20261;-66
2023/03/05 20:12:06;;;;;;;;;;;;;;;4.36;91.70;101002.84;10421899;28;19926;-66
2023/03/05 20:17:08;;;;;;;;;;;;;;;4.25;93.98;101010.88;10419570;28;20422;-66
2023/03/05 20:22:11;;;;;;;;;;;;;;;4.38;95.79;100995.84;10403465;28;19929;-66
2023/03/05 20:27:13;;;;;;;;;;;;;;;4.35;94.37;100990.75;10420312;28;20426;-66
2023/03/05 20:32:15;;;;;;;;;;;;;;;4.46;94.09;100986.13;10430346;28;19932;-66
2023/03/05 20:43:14;;;;;;;;;;;;;;;4.29;97.02;100984.00;10386424;28;19931;-66
2023/03/05 20:48:16;;;;;;;;;;;;;;;4.22;96.60;100974.69;10403305;28;20368;-66
2023/03/05 20:53:18;;;;;;;;;;;;;;;4.42;96.74;100974.13;10420474;28;19926;-66
2023/03/05 20:58:21;;;;;;;;;;;;;;;4.39;95.58;100969.03;10402732;28;19925;-66
2023/03/05 21:03:23;;;;;;;;;;;;;;;4.17;96.75;100967.06;10420054;28;19929;-66
2023/03/05 21:08:26;;;;;;;;;;;;;;;4.29;97.73;100963.28;10418552;28;19925;-66
2023/03/05 21:13:29;;;;;;;;;;;;;;;4.32;98.17;100952.81;10420511;28;19932;-67
2023/03/05 21:18:31;;;;;;;;;;;;;;;4.13;99.53;100949.03;10418323;28;20446;-66
2023/03/05 21:23:34;;;;;;;;;;;;;;;3.79;98.93;100952.56;10419262;28;19972;-66
2023/03/05 21:28:37;;;;;;;;;;;;;;;4.36;96.87;100940.63;10401838;28;19924;-66
2023/03/05 21:33:40;;;;;;;;;;;;;;;4.01;96.67;100940.72;10401614;28;20372;-66
2023/03/05 21:38:46;;;;;;;;;;;;;;;4.18;96.18;100932.47;10418344;28;19925;-66
2023/03/05 21:43:48;;;;;;;;;;;;;;;4.33;94.98;100915.63;10418558;28;19925;-66
2023/03/05 21:48:51;;;;;;;;;;;;;;;4.28;94.34;100918.34;10417504;28;20012;-67
2023/03/05 21:53:53;;;;;;;;;;;;;;;4.02;96.19;100911.34;10418362;28;19948;-66
2023/03/05 21:58:55;;;;;;;;;;;;;;;4.29;94.34;100908.84;10416300;28;19925;-66
2023/03/05 22:03:57;;;;;;;;;;;;;;;4.18;93.93;100903.94;10417762;28;19932;-66
2023/03/05 22:09:00;;;;;;;;;;;;;;;3.81;94.09;100897.22;10418323;28;20397;-66
2023/03/05 22:14:02;;;;;;;;;;;;;;;3.79;94.66;100883.47;10417392;28;20395;-66
2023/03/05 22:19:04;;;;;;;;;;;;;;;3.89;92.98;100878.88;10417372;28;19940;-66
2023/03/05 22:24:06;;;;;;;;;;;;;;;3.24;96.69;100890.13;10416899;28;19979;-66
2023/03/05 22:29:10;;;;;;;;;;;;;;;3.37;97.56;100875.97;10416270;28;20273;-66
2023/03/05 22:34:12;;;;;;;;;;;;;;;3.40;96.82;100875.06;10416804;28;20420;-66
2023/03/05 22:39:14;;;;;;;;;;;;;;;3.45;96.49;100858.50;10416700;28;20265;-66
2023/03/05 22:44:17;;;;;;;;;;;;;;;3.78;94.69;100850.69;10415395;28;19979;-66
2023/03/05 22:49:19;;;;;;;;;;;;;;;3.61;96.30;100851.16;10416273;28;19925;-66
2023/03/05 22:54:21;;;;;;;;;;;;;;;3.69;96.62;100849.22;10416847;28;19929;-66
2023/03/05 22:59:23;;;;;;;;;;;;;;;3.77;95.96;100848.16;10415477;28;19933;-66
2023/03/05 23:04:56;;;;;;;;;;;;;;;3.38;98.51;100843.16;10414921;28;19979;-66
2023/03/05 23:09:58;;;;;;;;;;;;;;;3.56;98.48;100823.72;10399961;28;20376;-66
2023/03/05 23:15:01;;;;;;;;;;;;;;;3.26;100.00;100824.50;10414950;28;19932;-66
2023/03/05 23:20:06;;;;;;;;;;;;;;;3.28;100.00;100821.88;10374403;28;19925;-66
2023/03/05 23:25:09;;;;;;;;;;;;;;;3.52;99.42;100807.41;10411535;28;19932;-66
2023/03/05 23:30:15;;;;;;;;;;;;;;;3.06;100.00;100812.09;10415321;28;19931;-66
2023/03/05 23:35:19;;;;;;;;;;;;;;;3.10;100.00;100816.28;10415043;28;19925;-66
2023/03/05 23:40:23;;;;;;;;;;;;;;;3.12;100.00;100808.50;10415846;28;19931;-66
2023/03/05 23:45:25;;;;;;;;;;;;;;;3.18;100.00;100800.56;10414867;28;19925;-66
2023/03/05 23:50:29;;;;;;;;;;;;;;;3.26;100.00;100802.94;10415060;28;20331;-67
2023/03/05 23:55:33;;;;;;;;;;;;;;;3.29;100.00;100790.75;10414726;28;20091;-66
